TimeEST,TemperatureF,Dew PointF,Humidity,Sea Level PressureIn,VisibilityMPH,Wind Direction,Wind SpeedMPH,Gust SpeedMPH,PrecipitationIn,Events,Conditions,WindDirDegrees,DateUTC
12:15 AM,32.0,24.8,75,30.22,10.0,NNE,15.0,23.0,N/A,,Overcast,30,2013-03-07 05:15:00
12:55 AM,32.0,26.6,80,30.24,10.0,NE,13.8,17.3,N/A,,Overcast,40,2013-03-07 05:55:00
1:15 AM,32.0,26.6,80,30.24,10.0,NE,13.8,18.4,N/A,,Overcast,50,2013-03-07 06:15:00
1:35 AM,32.0,26.6,80,30.23,10.0,NE,10.4,18.4,N/A,,Overcast,40,2013-03-07 06:35:00
1:55 AM,33.8,24.8,70,30.22,10.0,NE,12.7,20.7,N/A,,Overcast,40,2013-03-07 06:55:00
2:15 AM,33.8,24.8,70,30.20,10.0,NE,10.4,19.6,N/A,,Overcast,40,2013-03-07 07:15:00
2:35 AM,33.8,24.8,70,30.19,10.0,NE,12.7,21.9,N/A,,Overcast,50,2013-03-07 07:35:00
2:55 AM,33.8,24.8,70,30.20,10.0,NE,15.0,19.6,N/A,,Overcast,40,2013-03-07 07:55:00
3:15 AM,33.8,24.8,70,30.19,10.0,NE,16.1,26.5,N/A,,Overcast,40,2013-03-07 08:15:00
3:35 AM,33.8,24.8,70,30.18,10.0,NNE,19.6,26.5,N/A,,Overcast,30,2013-03-07 08:35:00
3:55 AM,33.8,24.8,70,30.18,10.0,NE,12.7,-,N/A,,Overcast,40,2013-03-07 08:55:00
4:15 AM,33.8,24.8,70,30.18,10.0,NE,13.8,-,N/A,,Overcast,40,2013-03-07 09:15:00
4:35 AM,33.8,24.8,70,30.18,10.0,NNE,17.3,23.0,N/A,,Overcast,30,2013-03-07 09:35:00
4:55 AM,33.8,24.8,70,30.18,10.0,NE,13.8,20.7,N/A,,Overcast,50,2013-03-07 09:55:00
5:15 AM,33.8,26.6,75,30.18,10.0,NNE,10.4,18.4,N/A,,Overcast,20,2013-03-07 10:15:00
5:35 AM,33.8,26.6,75,30.19,10.0,NNE,12.7,-,N/A,,Overcast,30,2013-03-07 10:35:00
5:55 AM,33.8,26.6,75,30.21,10.0,NE,8.1,-,N/A,,Overcast,40,2013-03-07 10:55:00
6:35 AM,33.8,24.8,70,30.21,10.0,NE,10.4,19.6,N/A,,Overcast,50,2013-03-07 11:35:00
7:15 AM,33.8,26.6,75,30.20,10.0,NE,17.3,25.3,N/A,,Overcast,40,2013-03-07 12:15:00
7:35 AM,33.8,24.8,70,30.20,10.0,NE,16.1,21.9,N/A,,Overcast,40,2013-03-07 12:35:00
7:55 AM,33.8,26.6,75,30.20,10.0,NE,15.0,25.3,N/A,,Overcast,40,2013-03-07 12:55:00
8:15 AM,33.8,26.6,75,30.20,10.0,NE,15.0,21.9,N/A,,Overcast,40,2013-03-07 13:15:00
8:35 AM,33.8,26.6,75,30.19,10.0,NE,18.4,25.3,N/A,,Overcast,40,2013-03-07 13:35:00
8:55 AM,33.8,26.6,75,30.19,10.0,NE,18.4,27.6,N/A,,Overcast,40,2013-03-07 13:55:00
9:15 AM,33.8,26.6,75,30.19,10.0,NE,20.7,26.5,N/A,,Overcast,40,2013-03-07 14:15:00
9:35 AM,33.8,24.8,70,30.20,10.0,NE,19.6,27.6,N/A,,Overcast,40,2013-03-07 14:35:00
9:55 AM,33.8,24.8,70,30.19,10.0,NE,20.7,29.9,N/A,,Overcast,40,2013-03-07 14:55:00
10:15 AM,33.8,24.8,70,30.19,10.0,NE,18.4,31.1,N/A,,Overcast,40,2013-03-07 15:15:00
10:35 AM,33.8,24.8,70,30.19,10.0,NE,20.7,26.5,N/A,,Overcast,40,2013-03-07 15:35:00
10:55 AM,33.8,24.8,70,30.20,10.0,NE,15.0,25.3,N/A,,Overcast,40,2013-03-07 15:55:00
11:15 AM,33.8,24.8,70,30.19,10.0,NNE,20.7,31.1,N/A,,Overcast,30,2013-03-07 16:15:00
11:35 AM,33.8,24.8,70,30.18,10.0,NE,19.6,27.6,N/A,,Overcast,40,2013-03-07 16:35:00
11:55 AM,33.8,24.8,70,30.17,10.0,NNE,25.3,34.5,N/A,,Overcast,30,2013-03-07 16:55:00
12:15 PM,35.6,24.8,65,30.16,10.0,NE,20.7,28.8,N/A,,Overcast,40,2013-03-07 17:15:00
12:35 PM,35.6,24.8,65,30.15,10.0,NE,20.7,28.8,N/A,,Overcast,40,2013-03-07 17:35:00
12:55 PM,35.6,24.8,65,30.15,10.0,NE,17.3,25.3,N/A,,Overcast,50,2013-03-07 17:55:00
1:15 PM,35.6,24.8,65,30.15,10.0,NE,15.0,21.9,N/A,,Overcast,50,2013-03-07 18:15:00
1:35 PM,35.6,24.8,65,30.15,10.0,NE,15.0,25.3,N/A,,Overcast,40,2013-03-07 18:35:00
1:55 PM,35.6,24.8,65,30.15,10.0,NE,15.0,32.2,N/A,,Overcast,40,2013-03-07 18:55:00
2:15 PM,37.4,24.8,60,30.14,10.0,NE,18.4,26.5,N/A,,Overcast,40,2013-03-07 19:15:00
2:35 PM,37.4,24.8,60,30.13,10.0,NE,13.8,26.5,N/A,,Overcast,40,2013-03-07 19:35:00
2:55 PM,37.4,24.8,60,30.12,10.0,NNE,20.7,27.6,N/A,,Overcast,30,2013-03-07 19:55:00
3:15 PM,37.4,24.8,60,30.12,10.0,NNE,20.7,28.8,N/A,,Overcast,30,2013-03-07 20:15:00
3:35 PM,37.4,24.8,60,30.11,10.0,NNE,19.6,27.6,N/A,,Overcast,30,2013-03-07 20:35:00
3:55 PM,37.4,24.8,60,30.11,10.0,NE,23.0,31.1,N/A,,Overcast,40,2013-03-07 20:55:00
4:15 PM,37.4,24.8,60,30.12,10.0,NE,20.7,26.5,N/A,,Overcast,40,2013-03-07 21:15:00
4:35 PM,37.4,24.8,60,30.12,10.0,NE,15.0,25.3,N/A,,Overcast,40,2013-03-07 21:35:00
4:55 PM,37.4,24.8,60,30.13,10.0,NE,20.7,31.1,N/A,,Mostly Cloudy,40,2013-03-07 21:55:00
5:15 PM,35.6,24.8,65,30.14,10.0,NNE,17.3,26.5,N/A,,Scattered Clouds,30,2013-03-07 22:15:00
5:35 PM,35.6,24.8,65,30.13,10.0,NNE,20.7,29.9,N/A,,Scattered Clouds,30,2013-03-07 22:35:00
5:55 PM,35.6,24.8,65,30.13,10.0,NNE,24.2,33.4,N/A,,Scattered Clouds,30,2013-03-07 22:55:00
6:15 PM,35.6,24.8,65,30.14,10.0,NNE,21.9,26.5,N/A,,Partly Cloudy,20,2013-03-07 23:15:00
6:35 PM,33.8,24.8,70,30.14,10.0,NNE,18.4,26.5,N/A,,Scattered Clouds,20,2013-03-07 23:35:00
6:55 PM,33.8,24.8,70,30.14,10.0,NNE,18.4,28.8,N/A,,Mostly Cloudy,30,2013-03-07 23:55:00
7:15 PM,33.8,24.8,70,30.13,10.0,NNE,18.4,24.2,N/A,,Mostly Cloudy,20,2013-03-08 00:15:00
7:35 PM,33.8,26.6,75,30.12,10.0,NNE,18.4,25.3,N/A,,Overcast,20,2013-03-08 00:35:00
7:55 PM,33.8,26.6,75,30.12,10.0,NNE,18.4,26.5,N/A,,Mostly Cloudy,20,2013-03-08 00:55:00
8:15 PM,33.8,26.6,75,30.12,10.0,NNE,16.1,29.9,N/A,,Mostly Cloudy,30,2013-03-08 01:15:00
8:35 PM,33.8,26.6,75,30.12,10.0,NNE,20.7,26.5,N/A,,Overcast,20,2013-03-08 01:35:00
8:55 PM,33.8,26.6,75,30.12,10.0,NNE,19.6,27.6,N/A,,Overcast,20,2013-03-08 01:55:00
9:15 PM,33.8,26.6,75,30.12,10.0,NNE,17.3,25.3,N/A,,Overcast,20,2013-03-08 02:15:00
9:35 PM,33.8,26.6,75,30.11,10.0,NNE,20.7,28.8,N/A,,Overcast,20,2013-03-08 02:35:00
9:55 PM,33.8,26.6,75,30.11,10.0,NE,16.1,-,N/A,,Overcast,40,2013-03-08 02:55:00
10:15 PM,33.8,26.6,75,30.11,10.0,NE,17.3,26.5,N/A,,Overcast,40,2013-03-08 03:15:00
10:35 PM,33.8,26.6,75,30.10,10.0,NNE,17.3,27.6,N/A,,Overcast,30,2013-03-08 03:35:00
10:55 PM,33.8,26.6,75,30.10,10.0,NNE,19.6,25.3,N/A,,Overcast,30,2013-03-08 03:55:00
11:15 PM,33.8,26.6,75,30.09,10.0,NE,16.1,25.3,N/A,,Overcast,40,2013-03-08 04:15:00
11:35 PM,33.8,26.6,75,30.09,10.0,NNE,15.0,24.2,N/A,,Overcast,30,2013-03-08 04:35:00
11:55 PM,33.8,26.6,75,30.08,10.0,NNE,19.6,31.1,N/A,,Overcast,20,2013-03-08 04:55:00